Flight Track Log - Related Links

Times and Time Zones

All times are in EDT time to prevent confusion due to time zone crossing. See the DAL6231 flight status page for this flight to view local times or setup timezone preferences in your user account.


Time Position Orientation Groundspeed Altitude Reporting Facility
EDT Latitude Longitude Course Direction KTS MPH feet Rate Location/Type
Tue 03:42:16 PM 35.9722 -79.8397 46° Northeast 276 318 9,100  Level Washington Center
Tue 03:43:13 PM 36.0303 -79.7889 35° Northeast 233 268 10,900 1,983 Climbing Washington Center
Tue 03:44:00 PM 36.3521 -79.4131 53° Northeast  Level FlightAware Approximate
Tue 03:44:14 PM 36.1122 -79.7108 38° Northeast 291 335 13,000  Level Washington Center
Tue 03:45:00 PM 36.4169 -79.3119 46° Northeast  Level FlightAware Approximate
Tue 03:45:15 PM 36.1689 -79.6444 43° Northeast 311 358 15,700  Level Washington Center
Tue 03:46:00 PM 36.4899 -79.2192 46° Northeast  Level FlightAware Approximate
Tue 03:46:15 PM 36.2386 -79.5553 46° Northeast 321 369 18,000  Level Washington Center
Tue 03:47:00 PM 36.5627 -79.1263 46° Northeast  Level FlightAware Approximate
Tue 03:47:13 PM 36.3036 -79.4786 44° Northeast 341 392 19,800  Level Washington Center
Tue 03:48:13 PM 36.3819 -79.3767 46° Northeast 354 407 22,000 2,033 Climbing Washington Center
Tue 03:49:14 PM 36.4581 -79.2850 44° Northeast 363 418 23,900 1,869 Climbing Washington Center
Tue 03:50:15 PM 36.5319 -79.1903 46° Northeast 373 429 25,800 1,664 Climbing Washington Center
Tue 03:51:13 PM 36.6075 -79.1031 43° Northeast 384 442 27,200 1,525 Climbing Washington Center
Tue 03:52:13 PM 36.6856 -78.9953 48° Northeast 396 456 28,800 1,500 Climbing Washington Center
Tue 03:53:13 PM 36.7619 -78.8819 50° Northeast 416 479 30,200 1,091 Climbing Washington Center
Tue 03:54:14 PM 36.8361 -78.7631 52° Northeast 421 484 31,000 397 Climbing Washington Center
Tue 03:55:14 PM 36.9250 -78.6264 51° Northeast 442 509 31,000  Level Washington Center
Tue 03:56:15 PM 37.0056 -78.4969 52° Northeast 459 528 31,000  Level Washington Center
Tue 03:57:15 PM 37.0878 -78.3700 51° Northeast 459 528 31,000  Level Washington Center
Tue 03:58:13 PM 37.1572 -78.2553 53° Northeast 458 527 31,000  Level Washington Center
Tue 03:59:13 PM 37.1750 -78.1019 82° East 428 493 31,000  Level Washington Center
Tue 04:00:14 PM 37.1908 -77.9461 83° East 438 504 31,000  Level Washington Center
Tue 04:01:14 PM 37.2475 -77.8069 63° Northeast 444 511 31,000  Level Washington Center
Tue 04:02:15 PM 37.3372 -77.6997 44° Northeast 434 499 31,000  Level Washington Center
Tue 04:03:15 PM 37.4247 -77.5872 46° Northeast 434 499 31,000  Level Washington Center
Tue 04:04:13 PM 37.5100 -77.4717 47° Northeast 440 506 31,000  Level Washington Center
Tue 04:05:15 PM 37.5950 -77.3583 47° Northeast 440 506 31,000  Level Washington Center
Tue 04:06:15 PM 37.6803 -77.2397 48° Northeast 445 512 31,000  Level Washington Center
Tue 04:07:13 PM 37.7631 -77.1258 47° Northeast 445 512 31,000  Level Washington Center
Tue 04:08:14 PM 37.8500 -77.0092 47° Northeast 440 506 31,000  Level Washington Center
Tue 04:09:14 PM 37.9347 -76.8922 47° Northeast 440 506 31,000  Level Washington Center
Tue 04:10:13 PM 38.0172 -76.7725 49° Northeast 440 506 31,000  Level Washington Center
Tue 04:11:14 PM 38.1017 -76.6578 47° Northeast 440 506 31,000  Level Washington Center
Tue 04:12:14 PM 38.1883 -76.5403 47° Northeast 440 506 31,000  Level Washington Center
Tue 04:13:15 PM 38.2683 -76.4247 49° Northeast 435 501 31,000  Level Washington Center
Tue 04:14:13 PM 38.3711 -76.3225 38° Northeast 423 487 31,000  Level Washington Center
Tue 04:15:13 PM 38.4675 -76.2333 36° Northeast 429 494 31,000 -98 Level Washington Center
Tue 04:16:15 PM 38.5597 -76.1492 36° Northeast 429 494 30,800 -689 Descending Washington Center
Tue 04:17:15 PM 38.6706 -76.0464 36° Northeast 444 511 29,600 -1,119 Descending Washington Center
Tue 04:18:13 PM 38.7731 -75.9539 35° Northeast 444 511 28,600 -1,017 Descending Washington Center
Tue 04:19:13 PM 38.8714 -75.8583 37° Northeast 444 511 27,600 -843 Descending Washington Center
Tue 04:20:14 PM 38.9717 -75.7653 36° Northeast 444 511 26,900 -298 Descending Washington Center
Tue 04:21:14 PM 39.0697 -75.6744 36° Northeast 438 504 27,000 50 Climbing Washington Center
Tue 04:22:15 PM 39.1633 -75.5836 37° Northeast 433 498 27,000  Level Washington Center
Tue 04:23:15 PM 39.2614 -75.4925 36° Northeast 433 498 27,000  Level Washington Center
Tue 04:24:13 PM 39.3592 -75.4064 34° Northeast 433 498 27,000 -252 Level Washington Center
Tue 04:25:14 PM 39.4547 -75.3200 35° Northeast 428 493 26,500 -1,328 Descending Washington Center
Tue 04:26:15 PM 39.5547 -75.2283 35° Northeast 428 493 24,300 -2,168 Descending Washington Center
Tue 04:27:13 PM 39.6481 -75.1414 36° Northeast 428 493 22,200 -2,118 Descending Washington Center
Tue 04:28:14 PM 39.7311 -75.0681 34° Northeast 409 471 20,100 -2,311 Descending Washington Center
Tue 04:29:15 PM 39.8308 -74.9836 33° Northeast 391 450 17,500 -2,338 Descending Washington Center
Tue 04:30:48 PM 39.9500 -74.8500 41° Northeast 365 420 14,100 -2,118 Descending New York TRACON
Tue 04:31:48 PM 40.0333 -74.7500 43° Northeast 357 411 12,100 -1,905 Descending New York TRACON
Tue 04:32:54 PM 40.1000 -74.6500 49° Northeast 359 413 10,100 -1,000 Descending New York TRACON
Tue 04:33:54 PM 40.1667 -74.5500 49° Northeast 347 399 10,000 -50 Descending New York TRACON
Tue 04:34:54 PM 40.2333 -74.4667 44° Northeast 345 397 10,000 -211 Level New York TRACON
Tue 04:35:48 PM 40.2833 -74.3833 52° Northeast 311 358 9,600 -737 Descending New York TRACON
Tue 04:36:48 PM 40.3500 -74.3167 37° Northeast 306 352 8,600 -1,000 Descending New York TRACON
Tue 04:37:48 PM 40.4167 -74.2333 44° Northeast 311 358 7,600 -1,000 Descending New York TRACON
Tue 04:38:48 PM 40.4667 -74.1667 45° Northeast 297 342 6,600 -1,000 Descending New York TRACON
Tue 04:39:48 PM 40.5333 -74.1000 37° Northeast 285 328 5,600 -1,000 Descending New York TRACON
Tue 04:40:48 PM 40.6000 -74.0500 30° Northeast 279 321 4,600 -800 Descending New York TRACON
Tue 04:41:48 PM 40.6667 -73.9833 37° Northeast 282 325 4,000 -300 Descending New York TRACON
Tue 04:42:48 PM 40.7167 -73.9167 45° Northeast 290 334 4,000  Level New York TRACON
Tue 04:43:48 PM 40.7500 -73.8167 66° East 286 329 4,000 -350 Level New York TRACON
Tue 04:44:48 PM 40.8167 -73.7500 37° Northeast 282 325 3,300 -500 Descending New York TRACON
Tue 04:45:48 PM 40.8833 -73.7000 30° Northeast 248 285 3,000 -500 Descending New York TRACON
Tue 04:46:48 PM 40.9167 -73.7333 323° Northwest 181 208 2,300 -500 Descending New York TRACON
Tue 04:47:48 PM 40.9000 -73.7833 246° West 184 212 2,000 -300 Descending New York TRACON

Login

Don't have an account? Register now (free) for customized features, flight alerts, and more!